ITY2013 AYPY-AGGH
Flight info
| Callsign | ITY2013 |
|---|---|
| Flight time | 1h 52m |
| Altitude | 39000 |
| Route | NUPTA1 NUPTA DCT KAPKI H532 KALKO B598 PAKMI PAKMI1A |
| Aircraft | A20N/M-SDE2E3FGHIRWXY/LB1 |
Departure
| Time | 2026-04-20 16:16 |
|---|---|
| Airport | Port Moresby Jacksons International Airport (AYPY) |
Arrival
| Time | 2026-04-20 18:08 |
|---|---|
| Airport | Honiara International Airport (AGGH) |
| Time | Latitude | Longitude | Altitude | Speed | Heading |
|---|---|---|---|---|---|
| 2026-04-20 15:45 | -9.43766 | 147.21147 | 104 ft | 0 kts | 240° |
| 2026-04-20 16:06 | -9.43760 | 147.21158 | 106 ft | 2 kts | 243° |
| 2026-04-20 16:06 | -9.43754 | 147.21170 | 104 ft | 2 kts | 244° |
| 2026-04-20 16:06 | -9.43748 | 147.21182 | 103 ft | 2 kts | 246° |
| 2026-04-20 16:07 | -9.43743 | 147.21194 | 102 ft | 2 kts | 251° |
| 2026-04-20 16:07 | -9.43740 | 147.21205 | 104 ft | 2 kts | 259° |
| 2026-04-20 16:07 | -9.43739 | 147.21215 | 103 ft | 1 kts | 272° |
| 2026-04-20 16:07 | -9.43739 | 147.21222 | 103 ft | 1 kts | 287° |
| 2026-04-20 16:08 | -9.43741 | 147.21228 | 106 ft | 1 kts | 302° |
| 2026-04-20 16:08 | -9.43745 | 147.21234 | 106 ft | 1 kts | 314° |
| 2026-04-20 16:08 | -9.43750 | 147.21238 | 101 ft | 1 kts | 322° |
| 2026-04-20 16:08 | -9.43754 | 147.21242 | 101 ft | 1 kts | 327° |
| 2026-04-20 16:09 | -9.43759 | 147.21245 | 101 ft | 1 kts | 329° |
| 2026-04-20 16:09 | -9.43763 | 147.21247 | 104 ft | 1 kts | 330° |
| 2026-04-20 16:09 | -9.43764 | 147.21248 | 104 ft | 0 kts | 330° |
| 2026-04-20 16:11 | -9.43763 | 147.21247 | 104 ft | 1 kts | 330° |
| 2026-04-20 16:11 | -9.43740 | 147.21240 | 99 ft | 7 kts | 358° |
| 2026-04-20 16:11 | -9.43684 | 147.21275 | 105 ft | 11 kts | 29° |
| 2026-04-20 16:12 | -9.43610 | 147.21253 | 104 ft | 13 kts | 329° |
| 2026-04-20 16:12 | -9.43528 | 147.21201 | 105 ft | 15 kts | 329° |
| 2026-04-20 16:12 | -9.43434 | 147.21142 | 106 ft | 17 kts | 328° |
| 2026-04-20 16:12 | -9.43331 | 147.21081 | 103 ft | 18 kts | 344° |
| 2026-04-20 16:13 | -9.43244 | 147.21148 | 106 ft | 16 kts | 58° |
| 2026-04-20 16:13 | -9.43206 | 147.21209 | 104 ft | 0 kts | 58° |
| 2026-04-20 16:13 | -9.43204 | 147.21213 | 105 ft | 2 kts | 58° |
| 2026-04-20 16:14 | -9.43188 | 147.21239 | 104 ft | 6 kts | 58° |
| 2026-04-20 16:14 | -9.43161 | 147.21286 | 103 ft | 9 kts | 59° |
| 2026-04-20 16:14 | -9.43127 | 147.21343 | 104 ft | 10 kts | 59° |
| 2026-04-20 16:14 | -9.43124 | 147.21409 | 108 ft | 10 kts | 125° |
| 2026-04-20 16:15 | -9.43151 | 147.21430 | 105 ft | 0 kts | 148° |
| 2026-04-20 16:15 | -9.43304 | 147.21524 | 106 ft | 69 kts | 149° |
| 2026-04-20 16:15 | -9.43941 | 147.21918 | 105 ft | 140 kts | 149° |
| 2026-04-20 16:15 | -9.44916 | 147.22516 | 393 ft | 175 kts | 148° |
| 2026-04-20 16:16 | -9.45972 | 147.23152 | 1262 ft | 176 kts | 149° |
| 2026-04-20 16:16 | -9.47027 | 147.23789 | 2058 ft | 186 kts | 154° |
| 2026-04-20 16:16 | -9.48222 | 147.24484 | 2480 ft | 209 kts | 149° |
| 2026-04-20 16:16 | -9.49542 | 147.25299 | 2921 ft | 233 kts | 148° |
| 2026-04-20 16:17 | -9.50985 | 147.26208 | 3444 ft | 255 kts | 148° |
| 2026-04-20 16:17 | -9.52489 | 147.27259 | 4062 ft | 270 kts | 135° |
| 2026-04-20 16:17 | -9.53648 | 147.28772 | 4940 ft | 274 kts | 125° |
| 2026-04-20 16:17 | -9.54748 | 147.30370 | 5829 ft | 279 kts | 124° |
| 2026-04-20 16:18 | -9.55864 | 147.32005 | 6633 ft | 285 kts | 124° |
| 2026-04-20 16:18 | -9.57001 | 147.33671 | 7428 ft | 290 kts | 125° |
| 2026-04-20 16:18 | -9.58156 | 147.35355 | 8303 ft | 291 kts | 125° |
| 2026-04-20 16:18 | -9.59311 | 147.37034 | 9084 ft | 297 kts | 125° |
| 2026-04-20 16:19 | -9.60497 | 147.38757 | 9913 ft | 300 kts | 126° |
| 2026-04-20 16:19 | -9.61715 | 147.40523 | 10462 ft | 314 kts | 126° |
| 2026-04-20 16:19 | -9.63016 | 147.42409 | 10674 ft | 337 kts | 125° |
| 2026-04-20 16:19 | -9.64401 | 147.44416 | 11027 ft | 353 kts | 125° |
| 2026-04-20 16:20 | -9.65817 | 147.46470 | 11731 ft | 357 kts | 125° |
| 2026-04-20 16:20 | -9.67253 | 147.48553 | 12457 ft | 361 kts | 125° |
| 2026-04-20 16:20 | -9.68702 | 147.50656 | 13171 ft | 366 kts | 125° |
| 2026-04-20 16:20 | -9.70151 | 147.52758 | 13841 ft | 370 kts | 125° |
| 2026-04-20 16:21 | -9.71634 | 147.54910 | 14443 ft | 374 kts | 125° |
| 2026-04-20 16:21 | -9.73134 | 147.57087 | 15071 ft | 378 kts | 125° |
| 2026-04-20 16:21 | -9.74647 | 147.59284 | 15670 ft | 381 kts | 125° |
| 2026-04-20 16:21 | -9.76174 | 147.61502 | 16277 ft | 385 kts | 125° |
| 2026-04-20 16:22 | -9.77715 | 147.63740 | 16859 ft | 389 kts | 125° |
| 2026-04-20 16:22 | -9.79270 | 147.65999 | 17429 ft | 393 kts | 125° |
| 2026-04-20 16:22 | -9.80843 | 147.68285 | 17983 ft | 397 kts | 125° |
| 2026-04-20 16:22 | -9.82429 | 147.70589 | 18495 ft | 400 kts | 125° |
| 2026-04-20 16:23 | -9.84005 | 147.72882 | 19004 ft | 403 kts | 125° |
| 2026-04-20 16:23 | -9.85616 | 147.75223 | 19487 ft | 406 kts | 125° |
| 2026-04-20 16:23 | -9.87236 | 147.77580 | 19976 ft | 409 kts | 125° |
| 2026-04-20 16:23 | -9.88870 | 147.79956 | 20461 ft | 412 kts | 125° |
| 2026-04-20 16:24 | -9.90515 | 147.82349 | 20947 ft | 415 kts | 125° |
| 2026-04-20 16:24 | -9.92169 | 147.84755 | 21426 ft | 418 kts | 125° |
| 2026-04-20 16:24 | -9.93836 | 147.87182 | 21857 ft | 422 kts | 125° |
| 2026-04-20 16:24 | -9.95533 | 147.89644 | 22319 ft | 425 kts | 126° |
| 2026-04-20 16:25 | -9.97267 | 147.92046 | 22783 ft | 428 kts | 127° |
| 2026-04-20 16:25 | -9.99064 | 147.94466 | 23253 ft | 430 kts | 127° |
| 2026-04-20 16:25 | -10.00876 | 147.96899 | 23649 ft | 433 kts | 127° |
| 2026-04-20 16:25 | -10.02694 | 147.99350 | 24034 ft | 435 kts | 127° |
| 2026-04-20 16:26 | -10.04511 | 148.01812 | 24420 ft | 437 kts | 127° |
| 2026-04-20 16:26 | -10.06337 | 148.04294 | 24790 ft | 440 kts | 127° |
| 2026-04-20 16:26 | -10.08174 | 148.06795 | 25146 ft | 442 kts | 127° |
| 2026-04-20 16:26 | -10.10016 | 148.09303 | 25513 ft | 444 kts | 127° |
| 2026-04-20 16:27 | -10.11869 | 148.11828 | 25869 ft | 447 kts | 127° |
| 2026-04-20 16:27 | -10.13728 | 148.14362 | 26208 ft | 449 kts | 127° |
| 2026-04-20 16:27 | -10.15597 | 148.16910 | 26549 ft | 451 kts | 127° |
| 2026-04-20 16:27 | -10.17454 | 148.19441 | 26879 ft | 453 kts | 127° |
| 2026-04-20 16:28 | -10.19341 | 148.22015 | 27181 ft | 456 kts | 127° |
| 2026-04-20 16:28 | -10.21243 | 148.24610 | 27503 ft | 458 kts | 127° |
| 2026-04-20 16:28 | -10.23039 | 148.27291 | 27818 ft | 460 kts | 118° |
| 2026-04-20 16:28 | -10.24315 | 148.30279 | 28114 ft | 463 kts | 107° |
| 2026-04-20 16:29 | -10.24976 | 148.33476 | 28400 ft | 464 kts | 95° |
| 2026-04-20 16:29 | -10.25126 | 148.36764 | 28705 ft | 466 kts | 91° |
| 2026-04-20 16:29 | -10.25231 | 148.40017 | 28981 ft | 468 kts | 91° |
| 2026-04-20 16:29 | -10.25343 | 148.43332 | 29268 ft | 470 kts | 91° |
| 2026-04-20 16:30 | -10.25458 | 148.46662 | 29545 ft | 472 kts | 91° |
| 2026-04-20 16:30 | -10.25573 | 148.50002 | 29844 ft | 474 kts | 92° |
| 2026-04-20 16:30 | -10.25689 | 148.53355 | 30111 ft | 476 kts | 92° |
| 2026-04-20 16:30 | -10.25806 | 148.56722 | 30357 ft | 478 kts | 92° |
| 2026-04-20 16:31 | -10.25923 | 148.60100 | 30618 ft | 479 kts | 92° |
| 2026-04-20 16:31 | -10.26039 | 148.63489 | 30876 ft | 481 kts | 92° |
| 2026-04-20 16:31 | -10.26156 | 148.66894 | 31164 ft | 482 kts | 92° |
| 2026-04-20 16:31 | -10.26270 | 148.70249 | 31501 ft | 481 kts | 92° |
| 2026-04-20 16:32 | -10.26385 | 148.73640 | 31848 ft | 480 kts | 92° |
| 2026-04-20 16:32 | -10.26500 | 148.77021 | 32218 ft | 478 kts | 92° |
| 2026-04-20 16:32 | -10.26614 | 148.80389 | 32623 ft | 476 kts | 92° |
| 2026-04-20 16:32 | -10.26727 | 148.83747 | 32935 ft | 476 kts | 92° |
| 2026-04-20 16:33 | -10.26840 | 148.87111 | 33248 ft | 475 kts | 92° |
| 2026-04-20 16:33 | -10.26952 | 148.90460 | 33554 ft | 475 kts | 92° |
| 2026-04-20 16:33 | -10.27064 | 148.93810 | 33869 ft | 474 kts | 92° |
| 2026-04-20 16:33 | -10.27175 | 148.97158 | 34123 ft | 474 kts | 92° |
| 2026-04-20 16:34 | -10.27286 | 149.00499 | 34381 ft | 473 kts | 92° |
| 2026-04-20 16:34 | -10.27360 | 149.02712 | 34549 ft | 473 kts | 92° |
| 2026-04-20 16:34 | -10.27470 | 149.06048 | 34753 ft | 474 kts | 92° |
| 2026-04-20 16:34 | -10.27580 | 149.09396 | 34928 ft | 475 kts | 92° |
| 2026-04-20 16:35 | -10.27690 | 149.12747 | 35180 ft | 474 kts | 92° |
| 2026-04-20 16:35 | -10.27799 | 149.16089 | 35435 ft | 473 kts | 92° |
| 2026-04-20 16:35 | -10.27908 | 149.19422 | 35680 ft | 472 kts | 92° |
| 2026-04-20 16:35 | -10.28016 | 149.22759 | 35925 ft | 472 kts | 92° |
| 2026-04-20 16:36 | -10.28124 | 149.26095 | 36165 ft | 471 kts | 92° |
| 2026-04-20 16:36 | -10.28232 | 149.29420 | 36400 ft | 471 kts | 92° |
| 2026-04-20 16:36 | -10.28339 | 149.32742 | 36634 ft | 470 kts | 92° |
| 2026-04-20 16:36 | -10.28444 | 149.36017 | 36852 ft | 470 kts | 92° |
| 2026-04-20 16:37 | -10.28550 | 149.39330 | 37078 ft | 469 kts | 92° |
| 2026-04-20 16:37 | -10.28656 | 149.42643 | 37288 ft | 469 kts | 92° |
| 2026-04-20 16:37 | -10.28761 | 149.45951 | 37490 ft | 468 kts | 92° |
| 2026-04-20 16:37 | -10.28866 | 149.49261 | 37683 ft | 468 kts | 92° |
| 2026-04-20 16:38 | -10.28970 | 149.52565 | 37886 ft | 467 kts | 92° |
| 2026-04-20 16:38 | -10.29073 | 149.55828 | 38068 ft | 467 kts | 92° |
| 2026-04-20 16:38 | -10.29176 | 149.59122 | 38244 ft | 466 kts | 92° |
| 2026-04-20 16:38 | -10.29280 | 149.62409 | 38499 ft | 464 kts | 91° |
| 2026-04-20 16:39 | -10.29382 | 149.65670 | 38737 ft | 461 kts | 91° |
| 2026-04-20 16:39 | -10.29483 | 149.68930 | 38866 ft | 461 kts | 91° |
| 2026-04-20 16:39 | -10.29684 | 149.75454 | 38949 ft | 461 kts | 91° |
| 2026-04-20 16:40 | -10.29884 | 149.81959 | 38952 ft | 460 kts | 91° |
| 2026-04-20 16:40 | -10.30082 | 149.88427 | 38949 ft | 460 kts | 91° |
| 2026-04-20 16:41 | -10.30280 | 149.94975 | 38947 ft | 465 kts | 92° |
| 2026-04-20 16:41 | -10.30478 | 150.01536 | 38948 ft | 464 kts | 92° |
| 2026-04-20 16:42 | -10.30674 | 150.08075 | 38934 ft | 462 kts | 92° |
| 2026-04-20 16:42 | -10.30867 | 150.14599 | 38926 ft | 461 kts | 92° |
| 2026-04-20 16:43 | -10.31058 | 150.21112 | 38937 ft | 464 kts | 92° |
| 2026-04-20 16:43 | -10.31251 | 150.27651 | 38939 ft | 468 kts | 92° |
| 2026-04-20 16:44 | -10.31444 | 150.34247 | 38935 ft | 466 kts | 92° |
| 2026-04-20 16:44 | -10.31145 | 150.40841 | 38930 ft | 467 kts | 86° |
| 2026-04-20 16:45 | -10.30642 | 150.47426 | 38926 ft | 468 kts | 86° |
| 2026-04-20 16:45 | -10.30144 | 150.54056 | 38933 ft | 472 kts | 86° |
| 2026-04-20 16:46 | -10.29642 | 150.60689 | 38924 ft | 470 kts | 86° |
| 2026-04-20 16:46 | -10.29142 | 150.67269 | 38927 ft | 470 kts | 86° |
| 2026-04-20 16:47 | -10.28637 | 150.73888 | 38925 ft | 470 kts | 86° |
| 2026-04-20 16:47 | -10.28129 | 150.80528 | 38923 ft | 474 kts | 87° |
| 2026-04-20 16:48 | -10.27616 | 150.87215 | 38927 ft | 474 kts | 87° |
| 2026-04-20 16:48 | -10.27103 | 150.93875 | 38920 ft | 473 kts | 87° |
| 2026-04-20 16:49 | -10.26591 | 151.00522 | 38910 ft | 472 kts | 87° |
| 2026-04-20 16:49 | -10.26077 | 151.07164 | 38901 ft | 471 kts | 87° |
| 2026-04-20 16:50 | -10.25563 | 151.13792 | 38914 ft | 470 kts | 87° |
| 2026-04-20 16:50 | -10.25051 | 151.20369 | 38914 ft | 470 kts | 87° |
| 2026-04-20 16:51 | -10.24537 | 151.26977 | 38909 ft | 469 kts | 87° |
| 2026-04-20 16:51 | -10.24020 | 151.33591 | 38908 ft | 469 kts | 87° |
| 2026-04-20 16:52 | -10.23502 | 151.40197 | 38895 ft | 469 kts | 87° |
| 2026-04-20 16:52 | -10.22983 | 151.46808 | 38897 ft | 470 kts | 87° |
| 2026-04-20 16:53 | -10.22464 | 151.53389 | 38897 ft | 470 kts | 87° |
| 2026-04-20 16:53 | -10.21942 | 151.60008 | 38900 ft | 471 kts | 87° |
| 2026-04-20 16:54 | -10.21417 | 151.66641 | 38906 ft | 471 kts | 87° |
| 2026-04-20 16:54 | -10.20889 | 151.73282 | 38911 ft | 472 kts | 87° |
| 2026-04-20 16:55 | -10.20364 | 151.79886 | 38917 ft | 472 kts | 87° |
| 2026-04-20 16:55 | -10.19833 | 151.86539 | 38920 ft | 473 kts | 87° |
| 2026-04-20 16:56 | -10.19301 | 151.93197 | 38947 ft | 473 kts | 87° |
| 2026-04-20 16:56 | -10.18769 | 151.99852 | 38912 ft | 471 kts | 86° |
| 2026-04-20 16:57 | -10.18237 | 152.06466 | 38912 ft | 472 kts | 86° |
| 2026-04-20 16:57 | -10.17701 | 152.13112 | 38911 ft | 472 kts | 86° |
| 2026-04-20 16:58 | -10.17164 | 152.19758 | 38911 ft | 472 kts | 86° |
| 2026-04-20 16:58 | -10.16629 | 152.26366 | 38909 ft | 472 kts | 86° |
| 2026-04-20 16:59 | -10.16090 | 152.33006 | 38909 ft | 472 kts | 86° |
| 2026-04-20 16:59 | -10.15545 | 152.39650 | 38908 ft | 472 kts | 86° |
| 2026-04-20 17:00 | -10.14702 | 152.49607 | 38909 ft | 472 kts | 86° |
| 2026-04-20 17:01 | -10.14140 | 152.56244 | 38919 ft | 472 kts | 86° |
| 2026-04-20 17:01 | -10.13578 | 152.62873 | 38918 ft | 471 kts | 86° |
| 2026-04-20 17:02 | -10.13018 | 152.69462 | 38916 ft | 471 kts | 86° |
| 2026-04-20 17:02 | -10.12454 | 152.76091 | 38913 ft | 471 kts | 86° |
| 2026-04-20 17:03 | -10.11888 | 152.82715 | 38908 ft | 470 kts | 86° |
| 2026-04-20 17:03 | -10.11323 | 152.89331 | 38912 ft | 470 kts | 86° |
| 2026-04-20 17:04 | -10.10756 | 152.95939 | 38909 ft | 469 kts | 86° |
| 2026-04-20 17:04 | -10.10193 | 153.02489 | 38910 ft | 469 kts | 86° |
| 2026-04-20 17:05 | -10.09628 | 153.09053 | 38905 ft | 464 kts | 86° |
| 2026-04-20 17:05 | -10.09066 | 153.15568 | 38902 ft | 462 kts | 85° |
| 2026-04-20 17:06 | -10.08504 | 153.22061 | 38903 ft | 461 kts | 85° |
| 2026-04-20 17:06 | -10.07944 | 153.28517 | 38903 ft | 462 kts | 85° |
| 2026-04-20 17:07 | -10.07380 | 153.34999 | 38901 ft | 462 kts | 85° |
| 2026-04-20 17:07 | -10.06813 | 153.41502 | 38900 ft | 462 kts | 85° |
| 2026-04-20 17:08 | -10.06252 | 153.47973 | 38906 ft | 462 kts | 85° |
| 2026-04-20 17:08 | -10.05691 | 153.54474 | 38907 ft | 462 kts | 85° |
| 2026-04-20 17:09 | -10.05128 | 153.60976 | 38907 ft | 462 kts | 85° |
| 2026-04-20 17:09 | -10.04568 | 153.67438 | 38907 ft | 462 kts | 85° |
| 2026-04-20 17:10 | -10.04002 | 153.73934 | 38907 ft | 462 kts | 85° |
| 2026-04-20 17:10 | -10.03436 | 153.80427 | 38902 ft | 462 kts | 85° |
| 2026-04-20 17:11 | -10.02868 | 153.86927 | 38900 ft | 462 kts | 85° |
| 2026-04-20 17:11 | -10.02299 | 153.93425 | 38900 ft | 462 kts | 85° |
| 2026-04-20 17:12 | -10.01728 | 153.99918 | 38895 ft | 462 kts | 85° |
| 2026-04-20 17:12 | -10.01157 | 154.06410 | 38894 ft | 462 kts | 85° |
| 2026-04-20 17:13 | -10.00588 | 154.12863 | 38900 ft | 462 kts | 85° |
| 2026-04-20 17:13 | -10.00014 | 154.19355 | 38900 ft | 462 kts | 85° |
| 2026-04-20 17:14 | -9.99438 | 154.25861 | 38898 ft | 462 kts | 85° |
| 2026-04-20 17:14 | -9.98861 | 154.32352 | 38899 ft | 462 kts | 85° |
| 2026-04-20 17:15 | -9.98283 | 154.38849 | 38901 ft | 462 kts | 85° |
| 2026-04-20 17:15 | -9.97707 | 154.45309 | 38897 ft | 462 kts | 85° |
| 2026-04-20 17:16 | -9.97126 | 154.51808 | 38895 ft | 462 kts | 85° |
| 2026-04-20 17:16 | -9.96544 | 154.58311 | 38895 ft | 462 kts | 85° |
| 2026-04-20 17:17 | -9.95961 | 154.64804 | 38890 ft | 462 kts | 85° |
| 2026-04-20 17:17 | -9.95380 | 154.71264 | 38880 ft | 463 kts | 85° |
| 2026-04-20 17:18 | -9.94793 | 154.77778 | 38888 ft | 463 kts | 85° |
| 2026-04-20 17:18 | -9.94205 | 154.84278 | 38890 ft | 463 kts | 85° |
| 2026-04-20 17:19 | -9.93618 | 154.90757 | 38888 ft | 463 kts | 85° |
| 2026-04-20 17:19 | -9.93027 | 154.97280 | 38891 ft | 463 kts | 85° |
| 2026-04-20 17:20 | -9.92436 | 155.03789 | 38888 ft | 463 kts | 85° |
| 2026-04-20 17:20 | -9.91845 | 155.10311 | 38889 ft | 464 kts | 85° |
| 2026-04-20 17:21 | -9.91259 | 155.16792 | 38889 ft | 464 kts | 85° |
| 2026-04-20 17:21 | -9.90669 | 155.23300 | 38889 ft | 464 kts | 84° |
| 2026-04-20 17:22 | -9.90076 | 155.29813 | 38889 ft | 464 kts | 84° |
| 2026-04-20 17:22 | -9.89482 | 155.36329 | 38891 ft | 464 kts | 84° |
| 2026-04-20 17:23 | -9.88986 | 155.41754 | 38889 ft | 464 kts | 84° |
| 2026-04-20 17:23 | -9.88389 | 155.48275 | 38890 ft | 463 kts | 84° |
| 2026-04-20 17:24 | -9.87791 | 155.54783 | 38886 ft | 464 kts | 84° |
| 2026-04-20 17:24 | -9.87191 | 155.61309 | 38886 ft | 464 kts | 84° |
| 2026-04-20 17:25 | -9.86594 | 155.67787 | 38883 ft | 464 kts | 84° |
| 2026-04-20 17:25 | -9.85991 | 155.74317 | 38881 ft | 464 kts | 84° |
| 2026-04-20 17:26 | -9.85387 | 155.80843 | 38880 ft | 465 kts | 84° |
| 2026-04-20 17:26 | -9.84782 | 155.87365 | 38881 ft | 465 kts | 84° |
| 2026-04-20 17:27 | -9.84177 | 155.93882 | 38886 ft | 465 kts | 84° |
| 2026-04-20 17:27 | -9.83568 | 156.00420 | 38882 ft | 466 kts | 84° |
| 2026-04-20 17:28 | -9.82958 | 156.06949 | 38875 ft | 465 kts | 84° |
| 2026-04-20 17:28 | -9.82351 | 156.13445 | 38878 ft | 465 kts | 84° |
| 2026-04-20 17:29 | -9.81739 | 156.19976 | 38881 ft | 465 kts | 84° |
| 2026-04-20 17:29 | -9.81124 | 156.26520 | 38877 ft | 465 kts | 84° |
| 2026-04-20 17:30 | -9.80510 | 156.33053 | 38882 ft | 465 kts | 84° |
| 2026-04-20 17:30 | -9.79893 | 156.39592 | 38881 ft | 465 kts | 84° |
| 2026-04-20 17:31 | -9.79279 | 156.46088 | 38877 ft | 466 kts | 84° |
| 2026-04-20 17:31 | -9.78660 | 156.52624 | 38875 ft | 465 kts | 84° |
| 2026-04-20 17:32 | -9.78040 | 156.59160 | 38873 ft | 466 kts | 84° |
| 2026-04-20 17:32 | -9.77419 | 156.65694 | 38876 ft | 466 kts | 84° |
| 2026-04-20 17:33 | -9.76800 | 156.72188 | 38877 ft | 466 kts | 84° |
| 2026-04-20 17:33 | -9.76175 | 156.78733 | 38878 ft | 466 kts | 84° |
| 2026-04-20 17:34 | -9.75551 | 156.85253 | 38876 ft | 466 kts | 84° |
| 2026-04-20 17:34 | -9.74924 | 156.91797 | 38881 ft | 466 kts | 84° |
| 2026-04-20 17:35 | -9.74294 | 156.98355 | 38876 ft | 467 kts | 84° |
| 2026-04-20 17:35 | -9.73663 | 157.04912 | 38876 ft | 467 kts | 84° |
| 2026-04-20 17:36 | -9.73035 | 157.11427 | 38881 ft | 467 kts | 84° |
| 2026-04-20 17:36 | -9.72401 | 157.17981 | 38879 ft | 467 kts | 84° |
| 2026-04-20 17:37 | -9.71766 | 157.24542 | 38874 ft | 467 kts | 84° |
| 2026-04-20 17:37 | -9.71135 | 157.31049 | 38875 ft | 467 kts | 84° |
| 2026-04-20 17:38 | -9.70499 | 157.37593 | 38873 ft | 466 kts | 84° |
| 2026-04-20 17:38 | -9.69860 | 157.44143 | 38870 ft | 466 kts | 84° |
| 2026-04-20 17:39 | -9.69221 | 157.50691 | 38872 ft | 466 kts | 84° |
| 2026-04-20 17:39 | -9.68583 | 157.57214 | 38868 ft | 466 kts | 84° |
| 2026-04-20 17:40 | -9.67943 | 157.63748 | 38865 ft | 466 kts | 84° |
| 2026-04-20 17:40 | -9.67300 | 157.70298 | 38866 ft | 466 kts | 84° |
| 2026-04-20 17:41 | -9.66661 | 157.76799 | 38867 ft | 466 kts | 84° |
| 2026-04-20 17:41 | -9.66016 | 157.83341 | 38868 ft | 466 kts | 84° |
| 2026-04-20 17:42 | -9.65370 | 157.89877 | 38871 ft | 466 kts | 84° |
| 2026-04-20 17:42 | -9.65047 | 157.93146 | 38736 ft | 466 kts | 84° |
| 2026-04-20 17:42 | -9.64723 | 157.96415 | 38499 ft | 465 kts | 84° |
| 2026-04-20 17:42 | -9.64399 | 157.99684 | 38230 ft | 465 kts | 84° |
| 2026-04-20 17:43 | -9.64080 | 158.02907 | 37972 ft | 466 kts | 84° |
| 2026-04-20 17:43 | -9.63754 | 158.06184 | 37706 ft | 468 kts | 84° |
| 2026-04-20 17:43 | -9.63427 | 158.09473 | 37442 ft | 469 kts | 83° |
| 2026-04-20 17:43 | -9.63100 | 158.12762 | 37192 ft | 470 kts | 83° |
| 2026-04-20 17:44 | -9.62772 | 158.16063 | 36934 ft | 470 kts | 83° |
| 2026-04-20 17:44 | -9.62442 | 158.19369 | 36684 ft | 471 kts | 83° |
| 2026-04-20 17:44 | -9.62112 | 158.22681 | 36433 ft | 472 kts | 83° |
| 2026-04-20 17:44 | -9.61781 | 158.25999 | 36189 ft | 473 kts | 83° |
| 2026-04-20 17:45 | -9.61450 | 158.29316 | 35950 ft | 474 kts | 83° |
| 2026-04-20 17:45 | -9.61121 | 158.32603 | 35713 ft | 475 kts | 83° |
| 2026-04-20 17:45 | -9.60788 | 158.35938 | 35393 ft | 476 kts | 83° |
| 2026-04-20 17:45 | -9.60508 | 158.39294 | 34730 ft | 480 kts | 85° |
| 2026-04-20 17:46 | -9.60314 | 158.42694 | 33824 ft | 487 kts | 86° |
| 2026-04-20 17:46 | -9.60136 | 158.46155 | 32678 ft | 495 kts | 86° |
| 2026-04-20 17:46 | -9.59951 | 158.49661 | 31659 ft | 500 kts | 86° |
| 2026-04-20 17:46 | -9.59754 | 158.53183 | 30735 ft | 502 kts | 86° |
| 2026-04-20 17:47 | -9.59548 | 158.56709 | 29966 ft | 501 kts | 86° |
| 2026-04-20 17:47 | -9.59340 | 158.60215 | 29211 ft | 497 kts | 86° |
| 2026-04-20 17:47 | -9.59132 | 158.63686 | 28463 ft | 490 kts | 85° |
| 2026-04-20 17:47 | -9.58928 | 158.67086 | 27748 ft | 477 kts | 85° |
| 2026-04-20 17:48 | -9.58728 | 158.70412 | 27019 ft | 470 kts | 85° |
| 2026-04-20 17:48 | -9.58530 | 158.73700 | 26312 ft | 464 kts | 85° |
| 2026-04-20 17:48 | -9.58332 | 158.76960 | 25583 ft | 463 kts | 85° |
| 2026-04-20 17:48 | -9.58135 | 158.80215 | 24853 ft | 462 kts | 85° |
| 2026-04-20 17:49 | -9.57938 | 158.83454 | 24118 ft | 457 kts | 85° |
| 2026-04-20 17:49 | -9.57746 | 158.86628 | 23421 ft | 447 kts | 85° |
| 2026-04-20 17:49 | -9.57557 | 158.89740 | 22702 ft | 436 kts | 85° |
| 2026-04-20 17:49 | -9.57374 | 158.92744 | 22025 ft | 425 kts | 85° |
| 2026-04-20 17:50 | -9.57194 | 158.95699 | 21351 ft | 415 kts | 85° |
| 2026-04-20 17:50 | -9.57017 | 158.98593 | 20647 ft | 407 kts | 85° |
| 2026-04-20 17:50 | -9.56843 | 159.01430 | 19988 ft | 399 kts | 85° |
| 2026-04-20 17:50 | -9.56672 | 159.04208 | 19359 ft | 391 kts | 86° |
| 2026-04-20 17:51 | -9.56507 | 159.06904 | 18723 ft | 385 kts | 86° |
| 2026-04-20 17:51 | -9.56342 | 159.09595 | 18076 ft | 379 kts | 86° |
| 2026-04-20 17:51 | -9.56179 | 159.12247 | 17399 ft | 372 kts | 86° |
| 2026-04-20 17:51 | -9.56020 | 159.14834 | 16795 ft | 364 kts | 86° |
| 2026-04-20 17:52 | -9.55863 | 159.17376 | 16192 ft | 358 kts | 86° |
| 2026-04-20 17:52 | -9.55704 | 159.19944 | 15643 ft | 376 kts | 86° |
| 2026-04-20 17:52 | -9.55539 | 159.22605 | 15266 ft | 379 kts | 86° |
| 2026-04-20 17:52 | -9.55373 | 159.25280 | 14568 ft | 382 kts | 86° |
| 2026-04-20 17:53 | -9.55206 | 159.27990 | 13649 ft | 386 kts | 86° |
| 2026-04-20 17:53 | -9.55039 | 159.30688 | 12959 ft | 377 kts | 86° |
| 2026-04-20 17:53 | -9.54877 | 159.33303 | 12356 ft | 366 kts | 86° |
| 2026-04-20 17:53 | -9.54721 | 159.35814 | 11757 ft | 357 kts | 86° |
| 2026-04-20 17:54 | -9.54566 | 159.38298 | 11164 ft | 349 kts | 86° |
| 2026-04-20 17:54 | -9.54415 | 159.40727 | 10572 ft | 342 kts | 86° |
| 2026-04-20 17:54 | -9.54267 | 159.43100 | 10114 ft | 333 kts | 86° |
| 2026-04-20 17:54 | -9.54116 | 159.45510 | 9937 ft | 350 kts | 86° |
| 2026-04-20 17:55 | -9.53961 | 159.47972 | 9876 ft | 348 kts | 86° |
| 2026-04-20 17:55 | -9.53808 | 159.50418 | 9871 ft | 350 kts | 86° |
| 2026-04-20 17:55 | -9.53657 | 159.52834 | 9853 ft | 345 kts | 86° |
| 2026-04-20 17:55 | -9.53508 | 159.55213 | 9760 ft | 331 kts | 86° |
| 2026-04-20 17:56 | -9.53407 | 159.56835 | 9652 ft | 319 kts | 86° |
| 2026-04-20 17:59 | -9.53280 | 159.58901 | 9380 ft | 308 kts | 86° |
| 2026-04-20 17:59 | -9.53145 | 159.61051 | 9024 ft | 304 kts | 86° |
| 2026-04-20 18:00 | -9.53020 | 159.63175 | 8554 ft | 300 kts | 86° |
| 2026-04-20 18:00 | -9.52907 | 159.65284 | 7942 ft | 299 kts | 87° |
| 2026-04-20 18:00 | -9.52796 | 159.67384 | 7390 ft | 296 kts | 87° |
| 2026-04-20 18:00 | -9.52685 | 159.69463 | 6913 ft | 290 kts | 87° |
| 2026-04-20 18:01 | -9.52579 | 159.71447 | 6767 ft | 274 kts | 87° |
| 2026-04-20 18:01 | -9.52478 | 159.73303 | 6668 ft | 261 kts | 87° |
| 2026-04-20 18:01 | -9.52380 | 159.75098 | 6576 ft | 249 kts | 87° |
| 2026-04-20 18:01 | -9.52287 | 159.76818 | 6411 ft | 242 kts | 87° |
| 2026-04-20 18:02 | -9.52196 | 159.78521 | 6112 ft | 241 kts | 87° |
| 2026-04-20 18:02 | -9.52104 | 159.80212 | 5834 ft | 239 kts | 87° |
| 2026-04-20 18:02 | -9.52004 | 159.81892 | 5597 ft | 235 kts | 84° |
| 2026-04-20 18:02 | -9.51650 | 159.83462 | 5482 ft | 223 kts | 69° |
| 2026-04-20 18:03 | -9.51066 | 159.84882 | 5333 ft | 215 kts | 67° |
| 2026-04-20 18:03 | -9.50498 | 159.86277 | 5150 ft | 208 kts | 68° |
| 2026-04-20 18:03 | -9.49978 | 159.87577 | 5082 ft | 192 kts | 68° |
| 2026-04-20 18:03 | -9.49498 | 159.88779 | 4976 ft | 175 kts | 68° |
| 2026-04-20 18:04 | -9.49068 | 159.89859 | 4778 ft | 163 kts | 68° |
| 2026-04-20 18:04 | -9.48645 | 159.90918 | 4446 ft | 161 kts | 68° |
| 2026-04-20 18:04 | -9.48225 | 159.91968 | 4098 ft | 161 kts | 68° |
| 2026-04-20 18:04 | -9.47805 | 159.93015 | 3753 ft | 160 kts | 68° |
| 2026-04-20 18:05 | -9.46972 | 159.95091 | 3108 ft | 156 kts | 68° |
| 2026-04-20 18:05 | -9.46587 | 159.96052 | 2970 ft | 140 kts | 68° |
| 2026-04-20 18:05 | -9.46227 | 159.96950 | 2685 ft | 140 kts | 69° |
| 2026-04-20 18:06 | -9.45854 | 159.97915 | 2145 ft | 153 kts | 69° |
| 2026-04-20 18:06 | -9.45490 | 159.98929 | 1656 ft | 157 kts | 65° |
| 2026-04-20 18:06 | -9.45064 | 159.99962 | 1064 ft | 162 kts | 60° |
| 2026-04-20 18:06 | -9.44597 | 160.00958 | 833 ft | 146 kts | 66° |
| 2026-04-20 18:07 | -9.44148 | 160.01947 | 656 ft | 158 kts | 79° |
| 2026-04-20 18:07 | -9.43784 | 160.02933 | 430 ft | 145 kts | 76° |
| 2026-04-20 18:07 | -9.43476 | 160.03878 | 189 ft | 142 kts | 55° |
| 2026-04-20 18:07 | -9.43081 | 160.04780 | 47 ft | 137 kts | 74° |
| 2026-04-20 18:08 | -9.42741 | 160.05659 | 29 ft | 146 kts | 63° |
| 2026-04-20 18:08 | -9.42439 | 160.06401 | 34 ft | 66 kts | 66° |
| 2026-04-20 18:08 | -9.42295 | 160.06477 | 31 ft | 10 kts | 306° |
| 2026-04-20 18:08 | -9.42318 | 160.06438 | 32 ft | 13 kts | 213° |
| 2026-04-20 18:09 | -9.42418 | 160.06348 | 34 ft | 20 kts | 218° |
| 2026-04-20 18:09 | -9.42522 | 160.06203 | 31 ft | 29 kts | 244° |
| 2026-04-20 18:09 | -9.42601 | 160.06006 | 29 ft | 31 kts | 247° |
| 2026-04-20 18:09 | -9.42690 | 160.05795 | 30 ft | 33 kts | 246° |
| 2026-04-20 18:10 | -9.42777 | 160.05582 | 29 ft | 32 kts | 251° |
| 2026-04-20 18:10 | -9.42844 | 160.05361 | 31 ft | 33 kts | 252° |
| 2026-04-20 18:10 | -9.42934 | 160.05163 | 28 ft | 36 kts | 251° |
| 2026-04-20 18:10 | -9.43034 | 160.04920 | 27 ft | 39 kts | 247° |
| 2026-04-20 18:11 | -9.43086 | 160.04789 | 26 ft | 3 kts | 251° |
| 2026-04-20 18:11 | -9.43080 | 160.04745 | 26 ft | 11 kts | 299° |
| 2026-04-20 18:11 | -9.43003 | 160.04704 | 26 ft | 15 kts | 339° |
| 2026-04-20 18:11 | -9.42894 | 160.04660 | 26 ft | 18 kts | 338° |
| 2026-04-20 18:12 | -9.42882 | 160.04610 | 26 ft | 8 kts | 257° |
| 2026-04-20 18:12 | -9.42858 | 160.04583 | 27 ft | 0 kts | 345° |
| 2026-04-20 18:12 | -9.42847 | 160.04579 | 27 ft | 0 kts | 340° |